sensor_id;sensor_type;location;lat;lon;timestamp;P1;durP1;ratioP1;P2;durP2;ratioP2
5841;SDS011;2947;52.276;9.946;2023-04-25T00:01:23;9.97;;;4.80;;
5841;SDS011;2947;52.276;9.946;2023-04-25T00:03:49;13.13;;;4.60;;
5841;SDS011;2947;52.276;9.946;2023-04-25T00:06:15;13.40;;;4.30;;
5841;SDS011;2947;52.276;9.946;2023-04-25T00:08:42;14.73;;;4.53;;
5841;SDS011;2947;52.276;9.946;2023-04-25T00:11:08;17.90;;;5.27;;
5841;SDS011;2947;52.276;9.946;2023-04-25T00:13:34;12.23;;;4.20;;
5841;SDS011;2947;52.276;9.946;2023-04-25T00:15:59;13.00;;;4.50;;
5841;SDS011;2947;52.276;9.946;2023-04-25T00:18:25;15.93;;;4.33;;
5841;SDS011;2947;52.276;9.946;2023-04-25T00:20:53;13.10;;;4.83;;
5841;SDS011;2947;52.276;9.946;2023-04-25T00:23:19;11.17;;;4.07;;
5841;SDS011;2947;52.276;9.946;2023-04-25T00:25:46;14.40;;;4.60;;
5841;SDS011;2947;52.276;9.946;2023-04-25T00:28:13;12.50;;;4.83;;
5841;SDS011;2947;52.276;9.946;2023-04-25T00:30:40;12.83;;;4.50;;
5841;SDS011;2947;52.276;9.946;2023-04-25T00:33:08;17.17;;;4.13;;
5841;SDS011;2947;52.276;9.946;2023-04-25T00:35:34;16.47;;;4.93;;
5841;SDS011;2947;52.276;9.946;2023-04-25T00:38:00;9.97;;;4.80;;
5841;SDS011;2947;52.276;9.946;2023-04-25T00:40:26;12.80;;;4.90;;
5841;SDS011;2947;52.276;9.946;2023-04-25T00:42:52;11.20;;;4.57;;
5841;SDS011;2947;52.276;9.946;2023-04-25T00:45:18;12.33;;;4.27;;
5841;SDS011;2947;52.276;9.946;2023-04-25T00:47:45;16.23;;;4.83;;
5841;SDS011;2947;52.276;9.946;2023-04-25T00:50:12;15.63;;;4.60;;
5841;SDS011;2947;52.276;9.946;2023-04-25T00:52:43;10.00;;;4.13;;
5841;SDS011;2947;52.276;9.946;2023-04-25T00:55:10;9.60;;;4.10;;
5841;SDS011;2947;52.276;9.946;2023-04-25T00:57:37;15.90;;;4.80;;
5841;SDS011;2947;52.276;9.946;2023-04-25T01:00:04;11.10;;;4.43;;
5841;SDS011;2947;52.276;9.946;2023-04-25T01:02:32;12.17;;;4.57;;
5841;SDS011;2947;52.276;9.946;2023-04-25T01:04:58;11.40;;;4.73;;
5841;SDS011;2947;52.276;9.946;2023-04-25T01:07:24;11.63;;;5.10;;
5841;SDS011;2947;52.276;9.946;2023-04-25T01:09:53;12.83;;;5.03;;
5841;SDS011;2947;52.276;9.946;2023-04-25T01:12:19;16.37;;;5.10;;
5841;SDS011;2947;52.276;9.946;2023-04-25T01:14:45;12.20;;;5.27;;
5841;SDS011;2947;52.276;9.946;2023-04-25T01:17:11;18.70;;;5.00;;
5841;SDS011;2947;52.276;9.946;2023-04-25T01:19:38;15.40;;;5.30;;
5841;SDS011;2947;52.276;9.946;2023-04-25T01:22:04;9.33;;;4.70;;
5841;SDS011;2947;52.276;9.946;2023-04-25T01:24:33;19.13;;;5.70;;
5841;SDS011;2947;52.276;9.946;2023-04-25T01:26:59;12.93;;;5.27;;
5841;SDS011;2947;52.276;9.946;2023-04-25T01:29:27;11.40;;;5.23;;
5841;SDS011;2947;52.276;9.946;2023-04-25T01:31:54;14.90;;;5.03;;
5841;SDS011;2947;52.276;9.946;2023-04-25T01:34:20;13.70;;;5.10;;
5841;SDS011;2947;52.276;9.946;2023-04-25T01:36:50;9.90;;;4.70;;
5841;SDS011;2947;52.276;9.946;2023-04-25T01:39:16;13.90;;;5.27;;
5841;SDS011;2947;52.276;9.946;2023-04-25T01:41:43;16.10;;;5.47;;
5841;SDS011;2947;52.276;9.946;2023-04-25T01:44:13;12.97;;;5.80;;
5841;SDS011;2947;52.276;9.946;2023-04-25T01:46:39;12.63;;;5.90;;
5841;SDS011;2947;52.276;9.946;2023-04-25T01:49:05;14.93;;;5.77;;
5841;SDS011;2947;52.276;9.946;2023-04-25T01:51:31;12.87;;;6.13;;
5841;SDS011;2947;52.276;9.946;2023-04-25T01:53:58;21.13;;;6.33;;
5841;SDS011;2947;52.276;9.946;2023-04-25T01:56:23;14.33;;;6.23;;
5841;SDS011;2947;52.276;9.946;2023-04-25T01:58:49;18.30;;;6.73;;
5841;SDS011;2947;52.276;9.946;2023-04-25T02:01:16;13.23;;;6.30;;
5841;SDS011;2947;52.276;9.946;2023-04-25T02:03:42;19.20;;;6.57;;
5841;SDS011;2947;52.276;9.946;2023-04-25T02:06:08;15.33;;;6.40;;
5841;SDS011;2947;52.276;9.946;2023-04-25T02:08:34;12.83;;;6.10;;
5841;SDS011;2947;52.276;9.946;2023-04-25T02:11:02;13.43;;;5.33;;
5841;SDS011;2947;52.276;9.946;2023-04-25T02:13:28;15.93;;;7.00;;
5841;SDS011;2947;52.276;9.946;2023-04-25T02:15:53;14.00;;;6.97;;
5841;SDS011;2947;52.276;9.946;2023-04-25T02:18:19;11.83;;;5.90;;
5841;SDS011;2947;52.276;9.946;2023-04-25T02:20:46;15.33;;;7.40;;
5841;SDS011;2947;52.276;9.946;2023-04-25T02:23:11;22.57;;;8.40;;
5841;SDS011;2947;52.276;9.946;2023-04-25T02:25:37;20.23;;;7.77;;
5841;SDS011;2947;52.276;9.946;2023-04-25T02:28:03;13.03;;;6.70;;
5841;SDS011;2947;52.276;9.946;2023-04-25T02:30:29;18.80;;;6.33;;
5841;SDS011;2947;52.276;9.946;2023-04-25T02:32:54;17.60;;;6.53;;
5841;SDS011;2947;52.276;9.946;2023-04-25T02:35:21;17.13;;;6.17;;
5841;SDS011;2947;52.276;9.946;2023-04-25T02:37:47;25.53;;;6.13;;
5841;SDS011;2947;52.276;9.946;2023-04-25T02:40:12;22.47;;;8.37;;
5841;SDS011;2947;52.276;9.946;2023-04-25T02:42:38;18.60;;;6.30;;
5841;SDS011;2947;52.276;9.946;2023-04-25T02:45:04;11.90;;;5.87;;
5841;SDS011;2947;52.276;9.946;2023-04-25T02:47:30;17.67;;;5.60;;
5841;SDS011;2947;52.276;9.946;2023-04-25T02:49:56;14.07;;;5.60;;
5841;SDS011;2947;52.276;9.946;2023-04-25T02:52:22;10.63;;;4.13;;
5841;SDS011;2947;52.276;9.946;2023-04-25T02:54:47;8.73;;;5.20;;
5841;SDS011;2947;52.276;9.946;2023-04-25T02:57:13;10.87;;;4.60;;
5841;SDS011;2947;52.276;9.946;2023-04-25T02:59:39;10.60;;;4.20;;
5841;SDS011;2947;52.276;9.946;2023-04-25T03:02:05;20.30;;;5.37;;
5841;SDS011;2947;52.276;9.946;2023-04-25T03:04:31;9.10;;;3.70;;
5841;SDS011;2947;52.276;9.946;2023-04-25T03:06:58;18.57;;;4.83;;
5841;SDS011;2947;52.276;9.946;2023-04-25T03:09:24;11.10;;;3.30;;
5841;SDS011;2947;52.276;9.946;2023-04-25T03:11:50;17.97;;;4.10;;
5841;SDS011;2947;52.276;9.946;2023-04-25T03:14:15;15.10;;;4.00;;
5841;SDS011;2947;52.276;9.946;2023-04-25T03:16:41;12.67;;;3.93;;
5841;SDS011;2947;52.276;9.946;2023-04-25T03:19:07;18.63;;;4.03;;
5841;SDS011;2947;52.276;9.946;2023-04-25T03:21:33;22.83;;;4.17;;
5841;SDS011;2947;52.276;9.946;2023-04-25T03:24:01;15.40;;;3.67;;
5841;SDS011;2947;52.276;9.946;2023-04-25T03:26:28;14.67;;;3.73;;
5841;SDS011;2947;52.276;9.946;2023-04-25T03:28:54;16.60;;;3.50;;
5841;SDS011;2947;52.276;9.946;2023-04-25T03:31:20;27.30;;;4.40;;
5841;SDS011;2947;52.276;9.946;2023-04-25T03:33:46;24.87;;;5.03;;
5841;SDS011;2947;52.276;9.946;2023-04-25T03:36:12;18.80;;;3.73;;
5841;SDS011;2947;52.276;9.946;2023-04-25T03:38:38;18.30;;;3.60;;
5841;SDS011;2947;52.276;9.946;2023-04-25T03:41:03;16.13;;;3.30;;
5841;SDS011;2947;52.276;9.946;2023-04-25T03:43:29;15.63;;;3.50;;
5841;SDS011;2947;52.276;9.946;2023-04-25T03:45:55;23.87;;;4.37;;
5841;SDS011;2947;52.276;9.946;2023-04-25T03:48:20;14.23;;;3.40;;
5841;SDS011;2947;52.276;9.946;2023-04-25T03:50:47;16.80;;;3.93;;
5841;SDS011;2947;52.276;9.946;2023-04-25T03:53:13;21.93;;;4.13;;
5841;SDS011;2947;52.276;9.946;2023-04-25T03:55:38;14.50;;;3.70;;
5841;SDS011;2947;52.276;9.946;2023-04-25T03:58:05;22.40;;;3.70;;
5841;SDS011;2947;52.276;9.946;2023-04-25T04:00:31;13.50;;;3.93;;
5841;SDS011;2947;52.276;9.946;2023-04-25T04:02:56;16.50;;;4.20;;
5841;SDS011;2947;52.276;9.946;2023-04-25T04:05:22;13.33;;;3.80;;
5841;SDS011;2947;52.276;9.946;2023-04-25T04:07:48;18.90;;;3.80;;
5841;SDS011;2947;52.276;9.946;2023-04-25T04:10:14;24.80;;;4.20;;
5841;SDS011;2947;52.276;9.946;2023-04-25T04:12:39;21.47;;;3.97;;
5841;SDS011;2947;52.276;9.946;2023-04-25T04:15:05;17.00;;;4.00;;
5841;SDS011;2947;52.276;9.946;2023-04-25T04:17:31;17.93;;;3.73;;
5841;SDS011;2947;52.276;9.946;2023-04-25T04:19:57;10.47;;;3.70;;
5841;SDS011;2947;52.276;9.946;2023-04-25T04:22:24;19.07;;;3.73;;
5841;SDS011;2947;52.276;9.946;2023-04-25T04:24:50;20.90;;;4.73;;
5841;SDS011;2947;52.276;9.946;2023-04-25T04:27:19;18.70;;;3.70;;
5841;SDS011;2947;52.276;9.946;2023-04-25T04:29:45;13.00;;;4.40;;
5841;SDS011;2947;52.276;9.946;2023-04-25T04:32:11;16.80;;;4.73;;
5841;SDS011;2947;52.276;9.946;2023-04-25T04:34:38;23.33;;;3.90;;
5841;SDS011;2947;52.276;9.946;2023-04-25T04:37:04;17.67;;;3.63;;
5841;SDS011;2947;52.276;9.946;2023-04-25T04:39:31;21.63;;;4.20;;
5841;SDS011;2947;52.276;9.946;2023-04-25T04:42:00;22.47;;;4.00;;
5841;SDS011;2947;52.276;9.946;2023-04-25T04:44:29;24.47;;;4.23;;
5841;SDS011;2947;52.276;9.946;2023-04-25T04:46:59;24.60;;;4.47;;
5841;SDS011;2947;52.276;9.946;2023-04-25T04:49:25;21.10;;;4.20;;
5841;SDS011;2947;52.276;9.946;2023-04-25T04:51:51;17.77;;;3.80;;
5841;SDS011;2947;52.276;9.946;2023-04-25T04:54:17;15.90;;;3.97;;
5841;SDS011;2947;52.276;9.946;2023-04-25T04:56:43;12.70;;;4.10;;
5841;SDS011;2947;52.276;9.946;2023-04-25T04:59:08;17.90;;;4.23;;
5841;SDS011;2947;52.276;9.946;2023-04-25T05:01:34;18.37;;;3.70;;
5841;SDS011;2947;52.276;9.946;2023-04-25T05:04:00;20.43;;;3.70;;
5841;SDS011;2947;52.276;9.946;2023-04-25T05:06:27;22.37;;;4.37;;
5841;SDS011;2947;52.276;9.946;2023-04-25T05:08:54;11.33;;;3.77;;
5841;SDS011;2947;52.276;9.946;2023-04-25T05:11:21;19.80;;;3.70;;
5841;SDS011;2947;52.276;9.946;2023-04-25T05:13:49;24.03;;;4.67;;
5841;SDS011;2947;52.276;9.946;2023-04-25T05:16:17;19.93;;;4.60;;
5841;SDS011;2947;52.276;9.946;2023-04-25T05:18:42;19.90;;;3.83;;
5841;SDS011;2947;52.276;9.946;2023-04-25T05:21:08;21.80;;;4.37;;
5841;SDS011;2947;52.276;9.946;2023-04-25T05:23:34;33.23;;;5.53;;
5841;SDS011;2947;52.276;9.946;2023-04-25T05:26:00;24.57;;;4.47;;
5841;SDS011;2947;52.276;9.946;2023-04-25T05:28:26;17.53;;;3.87;;
5841;SDS011;2947;52.276;9.946;2023-04-25T05:30:51;14.03;;;4.10;;
5841;SDS011;2947;52.276;9.946;2023-04-25T05:33:17;23.97;;;3.80;;
5841;SDS011;2947;52.276;9.946;2023-04-25T05:35:44;33.87;;;3.87;;
5841;SDS011;2947;52.276;9.946;2023-04-25T05:38:10;17.57;;;3.50;;
5841;SDS011;2947;52.276;9.946;2023-04-25T05:40:36;23.50;;;3.93;;
5841;SDS011;2947;52.276;9.946;2023-04-25T05:43:02;20.33;;;3.37;;
5841;SDS011;2947;52.276;9.946;2023-04-25T05:45:27;18.77;;;4.67;;
5841;SDS011;2947;52.276;9.946;2023-04-25T05:47:53;18.97;;;3.50;;
5841;SDS011;2947;52.276;9.946;2023-04-25T05:50:19;20.20;;;5.07;;
5841;SDS011;2947;52.276;9.946;2023-04-25T05:52:45;29.40;;;4.20;;
5841;SDS011;2947;52.276;9.946;2023-04-25T05:55:10;26.63;;;3.83;;
5841;SDS011;2947;52.276;9.946;2023-04-25T05:57:36;22.70;;;5.27;;
5841;SDS011;2947;52.276;9.946;2023-04-25T06:00:02;23.73;;;3.73;;
5841;SDS011;2947;52.276;9.946;2023-04-25T06:02:33;21.73;;;3.77;;
5841;SDS011;2947;52.276;9.946;2023-04-25T06:04:59;13.87;;;2.60;;
5841;SDS011;2947;52.276;9.946;2023-04-25T06:07:28;22.83;;;4.20;;
5841;SDS011;2947;52.276;9.946;2023-04-25T06:09:55;22.00;;;3.70;;
5841;SDS011;2947;52.276;9.946;2023-04-25T06:12:20;18.03;;;3.57;;
5841;SDS011;2947;52.276;9.946;2023-04-25T06:14:46;20.23;;;3.63;;
5841;SDS011;2947;52.276;9.946;2023-04-25T06:17:12;15.43;;;3.43;;
5841;SDS011;2947;52.276;9.946;2023-04-25T06:19:38;27.00;;;3.80;;
5841;SDS011;2947;52.276;9.946;2023-04-25T06:22:04;18.00;;;3.47;;
5841;SDS011;2947;52.276;9.946;2023-04-25T06:24:29;18.53;;;3.30;;
5841;SDS011;2947;52.276;9.946;2023-04-25T06:26:55;22.73;;;3.10;;
5841;SDS011;2947;52.276;9.946;2023-04-25T06:29:21;16.83;;;3.90;;
5841;SDS011;2947;52.276;9.946;2023-04-25T06:31:47;15.87;;;3.30;;
5841;SDS011;2947;52.276;9.946;2023-04-25T06:34:12;15.93;;;3.30;;
5841;SDS011;2947;52.276;9.946;2023-04-25T06:36:38;18.23;;;2.80;;
5841;SDS011;2947;52.276;9.946;2023-04-25T06:39:04;20.03;;;3.70;;
5841;SDS011;2947;52.276;9.946;2023-04-25T06:41:29;19.67;;;3.10;;
5841;SDS011;2947;52.276;9.946;2023-04-25T06:43:55;19.13;;;3.27;;
5841;SDS011;2947;52.276;9.946;2023-04-25T06:46:21;19.83;;;4.73;;
5841;SDS011;2947;52.276;9.946;2023-04-25T06:48:46;12.77;;;4.67;;
5841;SDS011;2947;52.276;9.946;2023-04-25T06:51:12;19.40;;;3.70;;
5841;SDS011;2947;52.276;9.946;2023-04-25T06:53:38;14.83;;;3.13;;
5841;SDS011;2947;52.276;9.946;2023-04-25T06:56:05;13.47;;;3.40;;
5841;SDS011;2947;52.276;9.946;2023-04-25T06:58:31;22.23;;;2.90;;
5841;SDS011;2947;52.276;9.946;2023-04-25T07:00:57;17.27;;;2.73;;
5841;SDS011;2947;52.276;9.946;2023-04-25T07:03:22;15.43;;;3.17;;
5841;SDS011;2947;52.276;9.946;2023-04-25T07:05:48;16.97;;;2.67;;
5841;SDS011;2947;52.276;9.946;2023-04-25T07:08:15;10.40;;;2.60;;
5841;SDS011;2947;52.276;9.946;2023-04-25T07:10:41;14.07;;;2.73;;
5841;SDS011;2947;52.276;9.946;2023-04-25T07:13:07;18.63;;;2.53;;
5841;SDS011;2947;52.276;9.946;2023-04-25T07:15:33;14.03;;;3.07;;
5841;SDS011;2947;52.276;9.946;2023-04-25T07:17:59;15.63;;;2.70;;
5841;SDS011;2947;52.276;9.946;2023-04-25T07:20:25;19.53;;;4.00;;
5841;SDS011;2947;52.276;9.946;2023-04-25T07:22:52;15.83;;;3.90;;
5841;SDS011;2947;52.276;9.946;2023-04-25T07:25:18;13.63;;;3.00;;
5841;SDS011;2947;52.276;9.946;2023-04-25T07:27:44;24.57;;;3.17;;
5841;SDS011;2947;52.276;9.946;2023-04-25T07:30:10;12.97;;;2.83;;
5841;SDS011;2947;52.276;9.946;2023-04-25T07:32:37;20.97;;;3.77;;
5841;SDS011;2947;52.276;9.946;2023-04-25T07:35:03;15.80;;;4.37;;
5841;SDS011;2947;52.276;9.946;2023-04-25T07:37:30;18.50;;;4.30;;
5841;SDS011;2947;52.276;9.946;2023-04-25T07:39:55;13.00;;;2.43;;
5841;SDS011;2947;52.276;9.946;2023-04-25T07:42:21;19.50;;;2.53;;
5841;SDS011;2947;52.276;9.946;2023-04-25T07:44:47;17.57;;;2.83;;
5841;SDS011;2947;52.276;9.946;2023-04-25T07:47:12;9.70;;;2.57;;
5841;SDS011;2947;52.276;9.946;2023-04-25T07:49:38;12.10;;;3.00;;
5841;SDS011;2947;52.276;9.946;2023-04-25T07:52:05;9.47;;;3.23;;
5841;SDS011;2947;52.276;9.946;2023-04-25T07:54:31;12.90;;;2.37;;
5841;SDS011;2947;52.276;9.946;2023-04-25T07:56:57;11.30;;;2.40;;
5841;SDS011;2947;52.276;9.946;2023-04-25T07:59:23;14.97;;;3.07;;
5841;SDS011;2947;52.276;9.946;2023-04-25T08:01:49;20.47;;;2.43;;
5841;SDS011;2947;52.276;9.946;2023-04-25T08:04:15;10.43;;;2.37;;
5841;SDS011;2947;52.276;9.946;2023-04-25T08:06:41;8.53;;;2.23;;
5841;SDS011;2947;52.276;9.946;2023-04-25T08:09:07;10.93;;;2.17;;
5841;SDS011;2947;52.276;9.946;2023-04-25T08:11:34;13.97;;;2.73;;
5841;SDS011;2947;52.276;9.946;2023-04-25T08:14:00;13.70;;;2.17;;
5841;SDS011;2947;52.276;9.946;2023-04-25T08:16:26;18.23;;;2.53;;
5841;SDS011;2947;52.276;9.946;2023-04-25T08:18:52;8.07;;;2.07;;
5841;SDS011;2947;52.276;9.946;2023-04-25T08:21:18;7.20;;;1.87;;
5841;SDS011;2947;52.276;9.946;2023-04-25T08:23:44;9.93;;;2.07;;
5841;SDS011;2947;52.276;9.946;2023-04-25T08:26:10;15.47;;;2.60;;
5841;SDS011;2947;52.276;9.946;2023-04-25T08:28:36;7.53;;;1.73;;
5841;SDS011;2947;52.276;9.946;2023-04-25T08:31:01;14.23;;;2.40;;
5841;SDS011;2947;52.276;9.946;2023-04-25T08:33:27;9.10;;;1.90;;
5841;SDS011;2947;52.276;9.946;2023-04-25T08:35:53;5.80;;;2.17;;
5841;SDS011;2947;52.276;9.946;2023-04-25T08:38:19;10.70;;;2.07;;
5841;SDS011;2947;52.276;9.946;2023-04-25T08:40:44;10.00;;;2.30;;
5841;SDS011;2947;52.276;9.946;2023-04-25T08:43:19;7.93;;;2.37;;
5841;SDS011;2947;52.276;9.946;2023-04-25T08:45:45;7.60;;;2.13;;
5841;SDS011;2947;52.276;9.946;2023-04-25T08:48:12;14.50;;;3.10;;
5841;SDS011;2947;52.276;9.946;2023-04-25T08:50:50;11.30;;;2.33;;
5841;SDS011;2947;52.276;9.946;2023-04-25T08:53:21;13.47;;;2.67;;
5841;SDS011;2947;52.276;9.946;2023-04-25T08:55:52;6.57;;;1.80;;
5841;SDS011;2947;52.276;9.946;2023-04-25T08:58:19;13.90;;;2.50;;
5841;SDS011;2947;52.276;9.946;2023-04-25T09:00:46;14.00;;;2.77;;
5841;SDS011;2947;52.276;9.946;2023-04-25T09:03:13;9.30;;;2.10;;
5841;SDS011;2947;52.276;9.946;2023-04-25T09:05:40;14.23;;;2.27;;
5841;SDS011;2947;52.276;9.946;2023-04-25T09:08:06;8.40;;;2.80;;
5841;SDS011;2947;52.276;9.946;2023-04-25T09:10:32;9.23;;;1.90;;
5841;SDS011;2947;52.276;9.946;2023-04-25T09:13:09;23.47;;;2.20;;
5841;SDS011;2947;52.276;9.946;2023-04-25T09:15:49;12.93;;;1.90;;
5841;SDS011;2947;52.276;9.946;2023-04-25T09:18:27;10.17;;;2.00;;
5841;SDS011;2947;52.276;9.946;2023-04-25T09:26:13;7.80;;;1.63;;
5841;SDS011;2947;52.276;9.946;2023-04-25T09:28:41;6.43;;;1.70;;
5841;SDS011;2947;52.276;9.946;2023-04-25T09:31:09;8.50;;;1.93;;
5841;SDS011;2947;52.276;9.946;2023-04-25T09:33:36;7.80;;;1.50;;
5841;SDS011;2947;52.276;9.946;2023-04-25T09:36:03;24.67;;;2.60;;
5841;SDS011;2947;52.276;9.946;2023-04-25T09:38:45;4.57;;;1.50;;
5841;SDS011;2947;52.276;9.946;2023-04-25T09:41:11;8.10;;;2.00;;
5841;SDS011;2947;52.276;9.946;2023-04-25T09:43:38;7.07;;;2.03;;
5841;SDS011;2947;52.276;9.946;2023-04-25T09:46:08;12.63;;;2.70;;
5841;SDS011;2947;52.276;9.946;2023-04-25T09:48:35;14.13;;;3.33;;
5841;SDS011;2947;52.276;9.946;2023-04-25T09:51:09;13.33;;;2.13;;
5841;SDS011;2947;52.276;9.946;2023-04-25T09:53:38;10.93;;;1.80;;
5841;SDS011;2947;52.276;9.946;2023-04-25T09:56:07;7.03;;;1.83;;
5841;SDS011;2947;52.276;9.946;2023-04-25T09:58:35;6.57;;;1.90;;
5841;SDS011;2947;52.276;9.946;2023-04-25T10:01:04;8.53;;;1.80;;
5841;SDS011;2947;52.276;9.946;2023-04-25T10:03:33;5.73;;;1.50;;
5841;SDS011;2947;52.276;9.946;2023-04-25T10:06:06;7.50;;;1.50;;
5841;SDS011;2947;52.276;9.946;2023-04-25T10:08:36;8.40;;;1.70;;
5841;SDS011;2947;52.276;9.946;2023-04-25T10:11:07;5.20;;;1.33;;
5841;SDS011;2947;52.276;9.946;2023-04-25T10:13:34;12.20;;;1.33;;
5841;SDS011;2947;52.276;9.946;2023-04-25T10:16:02;7.17;;;1.50;;
5841;SDS011;2947;52.276;9.946;2023-04-25T10:18:29;5.93;;;1.43;;
5841;SDS011;2947;52.276;9.946;2023-04-25T10:20:57;3.30;;;0.90;;
5841;SDS011;2947;52.276;9.946;2023-04-25T10:23:26;8.73;;;1.93;;
5841;SDS011;2947;52.276;9.946;2023-04-25T10:25:54;9.33;;;1.43;;
5841;SDS011;2947;52.276;9.946;2023-04-25T10:28:20;8.33;;;1.70;;
5841;SDS011;2947;52.276;9.946;2023-04-25T10:33:33;5.43;;;1.43;;
5841;SDS011;2947;52.276;9.946;2023-04-25T10:39:02;6.03;;;1.70;;
5841;SDS011;2947;52.276;9.946;2023-04-25T10:41:46;5.33;;;1.60;;
5841;SDS011;2947;52.276;9.946;2023-04-25T10:44:26;6.50;;;1.60;;
5841;SDS011;2947;52.276;9.946;2023-04-25T10:46:57;5.50;;;1.83;;
5841;SDS011;2947;52.276;9.946;2023-04-25T10:49:43;11.23;;;1.67;;
5841;SDS011;2947;52.276;9.946;2023-04-25T10:54:54;5.37;;;1.80;;
5841;SDS011;2947;52.276;9.946;2023-04-25T11:00:19;4.30;;;1.90;;
5841;SDS011;2947;52.276;9.946;2023-04-25T11:02:51;7.63;;;1.50;;
5841;SDS011;2947;52.276;9.946;2023-04-25T11:08:03;6.77;;;1.40;;
5841;SDS011;2947;52.276;9.946;2023-04-25T11:10:36;4.90;;;1.50;;
5841;SDS011;2947;52.276;9.946;2023-04-25T11:13:02;3.33;;;1.27;;
5841;SDS011;2947;52.276;9.946;2023-04-25T11:15:28;9.20;;;1.77;;
5841;SDS011;2947;52.276;9.946;2023-04-25T11:17:54;7.87;;;1.63;;
5841;SDS011;2947;52.276;9.946;2023-04-25T11:20:20;6.70;;;1.57;;
5841;SDS011;2947;52.276;9.946;2023-04-25T11:22:50;6.70;;;1.63;;
5841;SDS011;2947;52.276;9.946;2023-04-25T11:25:16;4.90;;;1.73;;
5841;SDS011;2947;52.276;9.946;2023-04-25T11:30:18;6.43;;;1.77;;
5841;SDS011;2947;52.276;9.946;2023-04-25T11:32:45;7.33;;;1.50;;
5841;SDS011;2947;52.276;9.946;2023-04-25T11:35:11;11.23;;;2.13;;
5841;SDS011;2947;52.276;9.946;2023-04-25T11:37:41;12.40;;;2.90;;
5841;SDS011;2947;52.276;9.946;2023-04-25T11:40:09;6.07;;;1.40;;
5841;SDS011;2947;52.276;9.946;2023-04-25T11:42:36;10.63;;;1.90;;
5841;SDS011;2947;52.276;9.946;2023-04-25T11:45:03;8.17;;;1.60;;
5841;SDS011;2947;52.276;9.946;2023-04-25T11:47:31;6.90;;;1.30;;
5841;SDS011;2947;52.276;9.946;2023-04-25T11:50:01;5.10;;;1.77;;
5841;SDS011;2947;52.276;9.946;2023-04-25T11:52:38;6.57;;;1.53;;
5841;SDS011;2947;52.276;9.946;2023-04-25T11:55:09;8.43;;;1.67;;
5841;SDS011;2947;52.276;9.946;2023-04-25T11:57:40;10.40;;;1.73;;
5841;SDS011;2947;52.276;9.946;2023-04-25T12:00:08;5.93;;;2.10;;
5841;SDS011;2947;52.276;9.946;2023-04-25T12:02:40;8.30;;;1.47;;
5841;SDS011;2947;52.276;9.946;2023-04-25T12:05:11;12.40;;;2.27;;
5841;SDS011;2947;52.276;9.946;2023-04-25T12:07:39;9.83;;;1.80;;
5841;SDS011;2947;52.276;9.946;2023-04-25T12:10:10;5.67;;;1.83;;
5841;SDS011;2947;52.276;9.946;2023-04-25T12:12:38;8.23;;;2.33;;
5841;SDS011;2947;52.276;9.946;2023-04-25T12:15:18;5.37;;;1.37;;
5841;SDS011;2947;52.276;9.946;2023-04-25T12:17:50;9.07;;;1.93;;
5841;SDS011;2947;52.276;9.946;2023-04-25T12:20:20;7.13;;;1.77;;
5841;SDS011;2947;52.276;9.946;2023-04-25T12:22:50;7.33;;;1.80;;
5841;SDS011;2947;52.276;9.946;2023-04-25T12:28:17;3.77;;;1.70;;
5841;SDS011;2947;52.276;9.946;2023-04-25T12:33:28;7.37;;;1.43;;
5841;SDS011;2947;52.276;9.946;2023-04-25T12:35:56;10.13;;;1.97;;
5841;SDS011;2947;52.276;9.946;2023-04-25T12:38:26;3.93;;;1.63;;
5841;SDS011;2947;52.276;9.946;2023-04-25T12:40:55;14.10;;;2.00;;
5841;SDS011;2947;52.276;9.946;2023-04-25T12:43:22;7.50;;;2.53;;
5841;SDS011;2947;52.276;9.946;2023-04-25T12:45:49;7.63;;;1.90;;
5841;SDS011;2947;52.276;9.946;2023-04-25T12:48:19;9.93;;;1.60;;
5841;SDS011;2947;52.276;9.946;2023-04-25T12:50:46;4.07;;;0.80;;
5841;SDS011;2947;52.276;9.946;2023-04-25T12:53:14;3.23;;;1.13;;
5841;SDS011;2947;52.276;9.946;2023-04-25T12:55:47;4.10;;;1.27;;
5841;SDS011;2947;52.276;9.946;2023-04-25T12:58:14;3.63;;;1.10;;
5841;SDS011;2947;52.276;9.946;2023-04-25T13:00:41;5.73;;;1.17;;
5841;SDS011;2947;52.276;9.946;2023-04-25T13:03:08;9.30;;;1.23;;
5841;SDS011;2947;52.276;9.946;2023-04-25T13:05:34;5.90;;;1.10;;
5841;SDS011;2947;52.276;9.946;2023-04-25T13:08:00;3.23;;;1.00;;
5841;SDS011;2947;52.276;9.946;2023-04-25T13:10:26;5.83;;;1.60;;
5841;SDS011;2947;52.276;9.946;2023-04-25T13:12:51;4.87;;;1.23;;
5841;SDS011;2947;52.276;9.946;2023-04-25T13:15:17;3.20;;;1.10;;
5841;SDS011;2947;52.276;9.946;2023-04-25T13:17:43;5.50;;;1.13;;
5841;SDS011;2947;52.276;9.946;2023-04-25T13:20:09;3.80;;;1.17;;
5841;SDS011;2947;52.276;9.946;2023-04-25T13:22:36;5.20;;;1.10;;
5841;SDS011;2947;52.276;9.946;2023-04-25T13:25:04;4.93;;;0.80;;
5841;SDS011;2947;52.276;9.946;2023-04-25T13:27:32;4.17;;;0.90;;
5841;SDS011;2947;52.276;9.946;2023-04-25T13:29:59;3.63;;;0.90;;
5841;SDS011;2947;52.276;9.946;2023-04-25T13:32:26;3.67;;;0.90;;
5841;SDS011;2947;52.276;9.946;2023-04-25T13:34:52;2.17;;;0.73;;
5841;SDS011;2947;52.276;9.946;2023-04-25T13:37:18;6.60;;;1.07;;
5841;SDS011;2947;52.276;9.946;2023-04-25T13:39:44;6.30;;;1.40;;
5841;SDS011;2947;52.276;9.946;2023-04-25T13:42:09;3.57;;;1.00;;
5841;SDS011;2947;52.276;9.946;2023-04-25T13:44:36;2.50;;;1.00;;
5841;SDS011;2947;52.276;9.946;2023-04-25T13:47:01;4.00;;;1.17;;
5841;SDS011;2947;52.276;9.946;2023-04-25T13:49:27;2.37;;;0.87;;
5841;SDS011;2947;52.276;9.946;2023-04-25T13:51:53;9.17;;;1.43;;
5841;SDS011;2947;52.276;9.946;2023-04-25T13:54:19;7.53;;;0.80;;
5841;SDS011;2947;52.276;9.946;2023-04-25T13:56:44;4.10;;;1.50;;
5841;SDS011;2947;52.276;9.946;2023-04-25T13:59:10;5.43;;;0.90;;
5841;SDS011;2947;52.276;9.946;2023-04-25T14:01:36;6.10;;;1.20;;
5841;SDS011;2947;52.276;9.946;2023-04-25T14:04:02;3.47;;;1.10;;
5841;SDS011;2947;52.276;9.946;2023-04-25T14:06:31;4.27;;;1.30;;
5841;SDS011;2947;52.276;9.946;2023-04-25T14:08:57;4.77;;;2.07;;
5841;SDS011;2947;52.276;9.946;2023-04-25T14:11:25;2.53;;;1.27;;
5841;SDS011;2947;52.276;9.946;2023-04-25T14:13:51;6.47;;;1.97;;
5841;SDS011;2947;52.276;9.946;2023-04-25T14:16:17;6.90;;;1.27;;
5841;SDS011;2947;52.276;9.946;2023-04-25T14:18:42;6.93;;;1.83;;
5841;SDS011;2947;52.276;9.946;2023-04-25T14:21:08;7.70;;;1.50;;
5841;SDS011;2947;52.276;9.946;2023-04-25T14:23:34;5.30;;;1.33;;
5841;SDS011;2947;52.276;9.946;2023-04-25T14:26:00;3.97;;;0.77;;
5841;SDS011;2947;52.276;9.946;2023-04-25T14:28:27;4.93;;;1.20;;
5841;SDS011;2947;52.276;9.946;2023-04-25T14:30:52;2.93;;;1.20;;
5841;SDS011;2947;52.276;9.946;2023-04-25T14:33:18;3.80;;;1.00;;
5841;SDS011;2947;52.276;9.946;2023-04-25T14:35:44;2.30;;;1.20;;
5841;SDS011;2947;52.276;9.946;2023-04-25T14:38:10;2.80;;;1.20;;
5841;SDS011;2947;52.276;9.946;2023-04-25T14:40:35;9.27;;;1.30;;
5841;SDS011;2947;52.276;9.946;2023-04-25T14:43:02;3.80;;;1.40;;
5841;SDS011;2947;52.276;9.946;2023-04-25T14:45:28;4.73;;;1.20;;
5841;SDS011;2947;52.276;9.946;2023-04-25T14:47:53;2.93;;;1.17;;
5841;SDS011;2947;52.276;9.946;2023-04-25T14:50:20;2.80;;;1.40;;
5841;SDS011;2947;52.276;9.946;2023-04-25T14:52:45;6.23;;;1.33;;
5841;SDS011;2947;52.276;9.946;2023-04-25T14:55:11;4.93;;;1.87;;
5841;SDS011;2947;52.276;9.946;2023-04-25T14:57:37;5.23;;;1.40;;
5841;SDS011;2947;52.276;9.946;2023-04-25T15:00:04;5.80;;;1.53;;
5841;SDS011;2947;52.276;9.946;2023-04-25T15:02:34;5.47;;;1.70;;
5841;SDS011;2947;52.276;9.946;2023-04-25T15:05:00;3.70;;;1.20;;
5841;SDS011;2947;52.276;9.946;2023-04-25T15:07:26;3.20;;;1.53;;
5841;SDS011;2947;52.276;9.946;2023-04-25T15:09:52;5.73;;;2.10;;
5841;SDS011;2947;52.276;9.946;2023-04-25T15:12:18;6.47;;;2.10;;
5841;SDS011;2947;52.276;9.946;2023-04-25T15:14:45;4.40;;;1.40;;
5841;SDS011;2947;52.276;9.946;2023-04-25T15:17:11;5.13;;;1.60;;
5841;SDS011;2947;52.276;9.946;2023-04-25T15:19:38;6.30;;;1.50;;
5841;SDS011;2947;52.276;9.946;2023-04-25T15:22:05;6.07;;;1.40;;
5841;SDS011;2947;52.276;9.946;2023-04-25T15:24:31;7.60;;;1.43;;
5841;SDS011;2947;52.276;9.946;2023-04-25T15:26:57;3.60;;;1.20;;
5841;SDS011;2947;52.276;9.946;2023-04-25T15:29:23;3.27;;;1.37;;
5841;SDS011;2947;52.276;9.946;2023-04-25T15:31:49;11.43;;;2.07;;
5841;SDS011;2947;52.276;9.946;2023-04-25T15:34:15;9.83;;;3.43;;